createdAt,value
2023-01-17T00:02:09.172Z,5.93
2023-01-17T00:04:56.257Z,6.22
2023-01-17T00:07:43.939Z,6.78
2023-01-17T00:10:13.383Z,6.65
2023-01-17T00:12:40.543Z,6.35
2023-01-17T00:15:08.072Z,6.43
2023-01-17T00:17:35.283Z,6.57
2023-01-17T00:20:22.206Z,5.85
2023-01-17T00:23:09.145Z,5.80
2023-01-17T00:25:57.995Z,7.15
2023-01-17T00:44:32.373Z,5.22
2023-01-17T00:47:21.572Z,5.70
2023-01-17T00:50:08.523Z,5.47
2023-01-17T00:52:55.498Z,4.95
2023-01-17T00:55:42.530Z,5.63
2023-01-17T00:58:29.860Z,5.72
2023-01-17T01:01:17.412Z,4.78
2023-01-17T01:04:04.483Z,5.75
2023-01-17T01:06:51.433Z,6.50
2023-01-17T01:09:38.449Z,6.97
2023-01-17T01:12:25.478Z,5.40
2023-01-17T01:15:12.456Z,5.13
2023-01-17T01:17:59.394Z,4.82
2023-01-17T01:20:46.422Z,5.93
2023-01-17T01:23:33.399Z,6.53
2023-01-17T01:26:22.525Z,5.43
2023-01-17T01:29:09.577Z,5.78
2023-01-17T01:31:56.535Z,4.65
2023-01-17T01:34:23.636Z,4.57
2023-01-17T01:36:50.795Z,5.65
2023-01-17T01:39:17.881Z,4.93
2023-01-17T01:41:45.042Z,5.53
2023-01-17T01:44:32.014Z,4.95
2023-01-17T01:46:59.116Z,5.68
2023-01-17T01:49:28.587Z,5.22
2023-01-17T01:51:59.886Z,5.57
2023-01-17T01:54:30.858Z,5.85
2023-01-17T01:56:58.461Z,5.20
2023-01-17T01:59:26.278Z,5.40
2023-01-17T02:01:56.332Z,5.10
2023-01-17T02:04:24.761Z,5.88
2023-01-17T02:06:56.419Z,4.90
2023-01-17T02:09:23.996Z,5.20
2023-01-17T02:11:51.111Z,4.85
2023-01-17T02:14:19.531Z,5.68
2023-01-17T02:19:45.011Z,9.87
2023-01-17T02:22:31.938Z,7.38
2023-01-17T02:27:51.239Z,5.45
2023-01-17T02:30:34.635Z,5.40
2023-01-17T02:33:06.366Z,4.82
2023-01-17T02:35:37.252Z,5.22
2023-01-17T02:40:48.035Z,5.07
2023-01-17T02:43:16.563Z,3.92
2023-01-17T02:45:43.964Z,4.57
2023-01-17T02:48:12.424Z,5.07
2023-01-17T02:50:59.368Z,4.75
2023-01-17T02:53:32.282Z,5.32
2023-01-17T02:56:05.351Z,4.68
2023-01-17T03:01:36.806Z,4.15
2023-01-17T03:04:06.994Z,3.97
2023-01-17T03:06:38.130Z,4.70
2023-01-17T03:09:05.635Z,4.53
2023-01-17T03:11:33.660Z,4.25
2023-01-17T03:14:00.834Z,3.88
2023-01-17T03:16:29.370Z,4.03
2023-01-17T03:18:56.534Z,5.00
2023-01-17T03:21:23.937Z,4.47
2023-01-17T03:23:51.343Z,4.75
2023-01-17T03:26:18.776Z,4.38
2023-01-17T03:28:46.456Z,5.28
2023-01-17T03:31:15.619Z,3.65
2023-01-17T03:33:42.860Z,4.82
2023-01-17T03:36:10.110Z,4.35
2023-01-17T03:38:37.921Z,3.42
2023-01-17T03:41:05.252Z,3.42
2023-01-17T03:43:32.332Z,3.70
2023-01-17T03:46:03.595Z,4.05
2023-01-17T03:48:31.181Z,3.80
2023-01-17T03:50:58.313Z,3.45
2023-01-17T03:53:25.894Z,3.50
2023-01-17T03:55:53.091Z,3.97
2023-01-17T03:58:20.374Z,4.47
2023-01-17T04:00:47.622Z,3.67
2023-01-17T04:03:14.742Z,4.72
2023-01-17T04:05:41.858Z,3.63
2023-01-17T04:08:09.166Z,3.03
2023-01-17T04:10:36.354Z,3.97
2023-01-17T04:13:03.546Z,3.58
2023-01-17T04:15:30.855Z,3.45
2023-01-17T04:17:58.000Z,4.03
2023-01-17T04:20:29.912Z,3.55
2023-01-17T04:22:57.734Z,3.53
2023-01-17T04:25:26.025Z,4.75
2023-01-17T04:27:53.704Z,3.95
2023-01-17T04:30:20.879Z,5.20
2023-01-17T04:32:48.190Z,3.97
2023-01-17T04:35:15.526Z,3.05
2023-01-17T04:37:44.300Z,3.90
2023-01-17T04:40:11.919Z,3.38
2023-01-17T04:42:40.008Z,3.90
2023-01-17T04:45:07.429Z,3.90
2023-01-17T04:47:35.106Z,4.00
2023-01-17T04:50:02.334Z,4.20
2023-01-17T04:52:30.773Z,3.67
2023-01-17T04:54:57.897Z,3.50
2023-01-17T04:57:25.410Z,3.25
2023-01-17T04:59:53.907Z,3.22
2023-01-17T05:02:21.179Z,4.03
2023-01-17T05:04:48.331Z,3.65
2023-01-17T05:07:15.555Z,3.15
2023-01-17T05:09:44.031Z,3.95
2023-01-17T05:12:11.149Z,4.10
2023-01-17T05:14:38.365Z,3.78
2023-01-17T05:17:05.472Z,4.30
2023-01-17T05:19:32.601Z,3.42
2023-01-17T05:22:04.356Z,4.25
2023-01-17T05:24:32.458Z,3.28
2023-01-17T05:27:03.368Z,3.00
2023-01-17T05:29:30.936Z,3.92
2023-01-17T05:31:58.137Z,3.50
2023-01-17T05:34:25.315Z,3.28
2023-01-17T05:36:52.549Z,2.83
2023-01-17T05:39:19.744Z,3.70
2023-01-17T05:41:46.863Z,3.25
2023-01-17T05:44:15.455Z,4.50
2023-01-17T05:46:42.705Z,3.72
2023-01-17T05:49:09.890Z,3.47
2023-01-17T05:51:38.161Z,3.53
2023-01-17T05:54:06.200Z,3.85
2023-01-17T05:56:34.212Z,4.53
2023-01-17T05:59:01.545Z,4.55
2023-01-17T06:01:28.752Z,4.00
2023-01-17T06:03:55.897Z,4.85
2023-01-17T06:06:23.238Z,5.72
2023-01-17T06:08:50.393Z,4.50
2023-01-17T06:11:18.908Z,4.65
2023-01-17T06:13:46.121Z,4.20
2023-01-17T06:16:13.317Z,4.70
2023-01-17T06:18:40.558Z,4.22
2023-01-17T06:21:07.720Z,4.45
2023-01-17T06:23:34.901Z,4.68
2023-01-17T06:26:02.931Z,4.35
2023-01-17T06:28:30.522Z,5.78
2023-01-17T06:30:57.724Z,4.32
2023-01-17T06:33:25.057Z,5.57
2023-01-17T06:35:53.153Z,4.70
2023-01-17T06:38:20.460Z,5.00
2023-01-17T06:40:47.768Z,4.53
2023-01-17T06:43:15.056Z,5.40
2023-01-17T06:45:42.252Z,5.90
2023-01-17T06:48:09.820Z,5.22
2023-01-17T06:50:37.247Z,4.82
2023-01-17T06:53:05.293Z,5.60
2023-01-17T06:55:34.054Z,5.70
2023-01-17T06:58:03.109Z,5.10
2023-01-17T07:00:31.223Z,5.32
2023-01-17T07:02:58.474Z,5.18
2023-01-17T07:05:25.798Z,5.57
2023-01-17T07:07:53.803Z,5.00
2023-01-17T07:10:21.522Z,5.68
2023-01-17T07:12:48.684Z,5.55
2023-01-17T07:15:15.823Z,5.53
2023-01-17T07:17:42.998Z,6.15
2023-01-17T07:20:10.472Z,5.43
2023-01-17T07:22:37.998Z,5.78
2023-01-17T07:25:05.394Z,5.05
2023-01-17T07:27:33.801Z,6.90
2023-01-17T07:30:01.140Z,6.47
2023-01-17T07:32:28.789Z,6.55
2023-01-17T07:34:57.780Z,5.72
2023-01-17T07:37:26.615Z,7.63
2023-01-17T07:39:54.797Z,7.93
2023-01-17T07:42:23.966Z,8.02
2023-01-17T07:44:51.463Z,7.30
2023-01-17T07:47:18.714Z,7.32
2023-01-17T07:49:45.927Z,7.95
2023-01-17T07:52:13.237Z,7.55
2023-01-17T07:54:41.503Z,6.95
2023-01-17T07:57:11.557Z,8.13
2023-01-17T07:59:38.731Z,6.47
2023-01-17T08:02:06.330Z,8.93
2023-01-17T08:04:35.467Z,7.75
2023-01-17T08:07:02.604Z,7.85
2023-01-17T08:09:29.816Z,7.72
2023-01-17T08:11:56.950Z,8.18
2023-01-17T08:14:24.097Z,7.55
2023-01-17T08:16:51.441Z,7.43
2023-01-17T08:19:18.765Z,7.35
2023-01-17T08:21:45.975Z,8.07
2023-01-17T08:24:14.031Z,8.05
2023-01-17T08:26:41.354Z,7.85
2023-01-17T08:29:09.468Z,7.10
2023-01-17T08:31:36.974Z,8.45
2023-01-17T08:34:04.309Z,8.20
2023-01-17T08:36:31.571Z,7.30
2023-01-17T08:38:58.827Z,6.85
2023-01-17T08:41:28.075Z,6.40
2023-01-17T08:43:55.269Z,7.15
2023-01-17T08:46:23.223Z,7.28
2023-01-17T08:48:55.941Z,7.47
2023-01-17T08:51:26.532Z,7.07
2023-01-17T08:53:53.935Z,8.48
2023-01-17T08:56:21.206Z,7.45
2023-01-17T08:58:48.457Z,7.70
2023-01-17T09:01:16.179Z,8.48
2023-01-17T09:03:43.855Z,5.65
2023-01-17T09:06:12.695Z,7.65
2023-01-17T09:08:40.113Z,8.45
2023-01-17T09:11:08.291Z,8.32
2023-01-17T09:13:35.822Z,9.20
2023-01-17T09:16:03.951Z,7.68
2023-01-17T09:18:31.774Z,7.90
2023-01-17T09:20:59.619Z,8.27
2023-01-17T09:23:27.856Z,8.20
2023-01-17T09:25:55.867Z,8.45
2023-01-17T09:28:23.482Z,7.45
2023-01-17T09:30:50.769Z,8.45
2023-01-17T09:33:18.258Z,8.40
2023-01-17T09:35:46.050Z,8.68
2023-01-17T09:38:13.220Z,7.82
2023-01-17T09:40:44.820Z,9.30
2023-01-17T09:43:17.319Z,8.65
2023-01-17T09:45:44.865Z,10.18
2023-01-17T09:48:16.880Z,7.45
2023-01-17T09:50:50.577Z,8.85
2023-01-17T09:53:21.039Z,8.30
2023-01-17T09:58:46.779Z,8.48
2023-01-17T10:01:19.476Z,9.20
2023-01-17T10:03:52.510Z,8.82
2023-01-17T10:06:30.553Z,9.55
2023-01-17T10:11:56.174Z,13.13
2023-01-17T10:17:21.433Z,9.35
2023-01-17T10:20:08.336Z,9.98
2023-01-17T10:22:55.316Z,9.70
2023-01-17T10:25:29.220Z,8.82
2023-01-17T10:27:58.711Z,9.85
2023-01-17T10:30:49.002Z,9.27
2023-01-17T10:33:19.711Z,8.35
2023-01-17T10:35:52.199Z,9.57
2023-01-17T10:38:20.939Z,8.48
2023-01-17T10:40:51.477Z,8.10
2023-01-17T10:43:30.970Z,9.75
2023-01-17T10:45:58.462Z,8.48
2023-01-17T10:51:11.973Z,8.07
2023-01-17T10:56:22.476Z,9.05
2023-01-17T10:58:50.790Z,9.82
2023-01-17T11:01:21.235Z,9.32
2023-01-17T11:03:51.798Z,9.98
2023-01-17T11:09:00.265Z,8.98
2023-01-17T11:11:32.128Z,7.75
2023-01-17T11:14:01.274Z,8.65
2023-01-17T11:16:31.562Z,8.23
2023-01-17T11:19:18.573Z,8.32
2023-01-17T11:21:54.793Z,8.63
2023-01-17T11:24:27.446Z,8.40
2023-01-17T11:26:54.634Z,8.27
2023-01-17T11:29:39.312Z,8.73
2023-01-17T11:32:26.337Z,7.53
2023-01-17T11:35:07.704Z,7.72
2023-01-17T11:37:35.647Z,7.80
2023-01-17T11:40:07.340Z,7.57
2023-01-17T11:42:37.308Z,7.75
2023-01-17T11:45:24.298Z,8.02
2023-01-17T11:48:05.500Z,7.05
2023-01-17T11:50:32.657Z,7.20
2023-01-17T11:53:18.060Z,8.05
2023-01-17T11:56:05.420Z,6.90
2023-01-17T11:58:35.076Z,7.50
2023-01-17T12:09:14.607Z,6.95
2023-01-17T12:14:31.320Z,8.25
2023-01-17T12:17:07.306Z,7.03
2023-01-17T12:27:53.564Z,7.82
2023-01-17T12:35:43.226Z,7.43
2023-01-17T12:38:27.484Z,7.25
2023-01-17T12:43:39.922Z,7.25
2023-01-17T12:46:12.863Z,8.13
2023-01-17T12:48:40.185Z,8.52
2023-01-17T12:51:18.593Z,8.30
2023-01-17T12:54:05.595Z,7.78
2023-01-17T12:56:36.092Z,7.60
2023-01-17T12:59:23.080Z,8.57
2023-01-17T13:01:57.872Z,8.10
2023-01-17T13:07:10.502Z,8.30
2023-01-17T13:09:42.680Z,8.70
2023-01-17T13:12:15.436Z,7.38
2023-01-17T13:14:42.631Z,7.93
2023-01-17T13:17:24.393Z,7.85
2023-01-17T13:20:11.491Z,6.82
2023-01-17T13:22:39.362Z,7.40
2023-01-17T13:30:50.341Z,9.48
2023-01-17T13:33:37.405Z,8.25
2023-01-17T13:36:11.949Z,7.22
2023-01-17T13:38:58.924Z,8.52
2023-01-17T13:41:45.198Z,8.18
2023-01-17T13:44:30.338Z,7.60
2023-01-17T13:49:43.071Z,8.68
2023-01-17T13:54:51.199Z,7.55
2023-01-17T14:00:22.430Z,8.07
2023-01-17T14:02:50.842Z,7.78
2023-01-17T14:05:21.456Z,9.07
2023-01-17T14:07:53.408Z,8.10
2023-01-17T14:10:27.300Z,8.10
2023-01-17T14:12:55.308Z,8.05
2023-01-17T14:15:24.320Z,8.10
2023-01-17T14:20:35.486Z,10.10
2023-01-17T14:23:03.729Z,9.93
2023-01-17T14:25:38.713Z,9.85
2023-01-17T14:28:19.424Z,9.75
2023-01-17T14:30:46.639Z,8.52
2023-01-17T14:33:19.704Z,9.05
2023-01-17T14:35:52.650Z,10.45
2023-01-17T14:38:22.506Z,8.38
2023-01-17T14:40:52.283Z,10.25
2023-01-17T14:43:21.078Z,9.00
2023-01-17T14:45:48.397Z,10.35
2023-01-17T14:50:54.688Z,9.77
2023-01-17T14:53:26.261Z,7.85
2023-01-17T14:55:56.750Z,9.73
2023-01-17T14:58:26.269Z,8.23
2023-01-17T15:00:56.504Z,8.02
2023-01-17T15:03:23.997Z,8.27
2023-01-17T15:05:52.540Z,8.18
2023-01-17T15:08:21.038Z,6.75
2023-01-17T15:13:43.728Z,8.27
2023-01-17T15:16:21.450Z,7.20
2023-01-17T15:18:48.899Z,7.68
2023-01-17T15:21:17.562Z,9.38
2023-01-17T15:23:46.856Z,8.27
2023-01-17T15:26:15.310Z,8.63
2023-01-17T15:28:42.644Z,7.55
2023-01-17T15:33:49.509Z,8.43
2023-01-17T15:38:58.784Z,7.10
2023-01-17T15:41:27.629Z,8.20
2023-01-17T15:43:57.883Z,7.07
2023-01-17T15:46:29.174Z,7.88
2023-01-17T15:49:17.606Z,7.40
2023-01-17T15:51:49.820Z,7.85
2023-01-17T15:54:34.731Z,7.63
2023-01-17T15:57:05.855Z,7.57
2023-01-17T16:10:41.258Z,7.55
2023-01-17T16:13:10.508Z,6.30
2023-01-17T16:15:38.267Z,6.63
2023-01-17T16:18:07.782Z,6.80
2023-01-17T16:23:12.611Z,6.72
2023-01-17T16:25:40.211Z,7.15
2023-01-17T16:28:07.409Z,7.25
2023-01-17T16:30:34.572Z,5.93
2023-01-17T16:33:03.038Z,6.57
2023-01-17T16:35:31.561Z,7.32
2023-01-17T16:38:00.268Z,6.72
2023-01-17T16:40:28.775Z,5.90
2023-01-17T16:42:56.351Z,6.07
2023-01-17T16:45:25.390Z,5.85
2023-01-17T16:47:53.453Z,6.78
2023-01-17T16:50:23.008Z,6.10
2023-01-17T16:52:51.282Z,6.65
2023-01-17T16:55:19.577Z,6.70
2023-01-17T16:57:46.917Z,6.72
2023-01-17T17:00:14.325Z,7.05
2023-01-17T17:02:41.898Z,5.82
2023-01-17T17:05:09.652Z,5.93
2023-01-17T17:07:42.992Z,6.78
2023-01-17T17:10:11.238Z,5.75
2023-01-17T17:12:38.455Z,6.43
2023-01-17T17:15:05.839Z,6.65
2023-01-17T17:17:37.404Z,5.70
2023-01-17T17:20:05.310Z,6.43
2023-01-17T17:22:49.466Z,5.40
2023-01-17T17:27:43.768Z,5.60
2023-01-17T17:30:12.979Z,4.40
2023-01-17T17:32:40.119Z,6.07
2023-01-17T17:35:07.501Z,4.63
2023-01-17T17:37:34.754Z,5.47
2023-01-17T17:40:01.951Z,5.90
2023-01-17T17:42:30.808Z,5.63
2023-01-17T17:44:57.952Z,6.10
2023-01-17T17:47:25.147Z,5.10
2023-01-17T17:49:52.329Z,6.43
2023-01-17T17:52:19.509Z,5.50
2023-01-17T17:54:47.964Z,6.28
2023-01-17T17:57:15.270Z,6.22
2023-01-17T17:59:42.536Z,5.45
2023-01-17T18:02:11.269Z,5.78
2023-01-17T18:04:38.634Z,6.15
2023-01-17T18:07:05.900Z,5.28
2023-01-17T18:09:33.078Z,5.70
2023-01-17T18:12:00.523Z,5.63
2023-01-17T18:14:27.649Z,5.22
2023-01-17T18:16:54.977Z,5.93
2023-01-17T18:19:23.363Z,6.47
2023-01-17T18:21:51.602Z,6.40
2023-01-17T18:24:20.218Z,6.28
2023-01-17T18:26:50.194Z,5.63
2023-01-17T18:29:18.387Z,6.47
2023-01-17T18:31:46.304Z,7.32
2023-01-17T18:34:15.098Z,6.63
2023-01-17T18:36:42.824Z,5.72
2023-01-17T18:39:12.361Z,6.43
2023-01-17T18:41:39.456Z,5.82
2023-01-17T18:44:07.158Z,6.70
2023-01-17T18:46:35.041Z,5.75
2023-01-17T18:49:02.593Z,6.38
2023-01-17T18:51:32.118Z,7.25
2023-01-17T18:54:05.919Z,6.75
2023-01-17T18:56:35.294Z,6.90
2023-01-17T18:59:03.155Z,6.68
2023-01-17T19:01:33.595Z,5.43
2023-01-17T19:04:02.844Z,7.43
2023-01-17T19:06:50.163Z,6.57
2023-01-17T19:09:17.588Z,7.70
2023-01-17T19:11:45.736Z,7.15
2023-01-17T19:14:13.228Z,7.65
2023-01-17T19:16:41.579Z,8.55
2023-01-17T19:19:10.347Z,7.63
2023-01-17T19:21:37.565Z,7.80
2023-01-17T19:24:04.917Z,7.85
2023-01-17T19:26:32.120Z,8.77
2023-01-17T19:29:00.299Z,7.10
2023-01-17T19:31:28.736Z,5.93
2023-01-17T19:33:57.733Z,6.60
2023-01-17T19:36:25.988Z,6.05
2023-01-17T19:39:03.917Z,6.35
2023-01-17T19:41:32.400Z,7.45
2023-01-17T19:44:00.719Z,6.43
2023-01-17T19:46:28.478Z,6.97
2023-01-17T19:48:56.383Z,5.85
2023-01-17T19:51:24.293Z,6.82
2023-01-17T19:53:51.500Z,6.45
2023-01-17T19:56:19.997Z,6.80
2023-01-17T19:58:47.546Z,6.82
2023-01-17T20:01:19.304Z,6.55
2023-01-17T20:03:47.368Z,7.32
2023-01-17T20:06:16.187Z,5.63
2023-01-17T20:08:43.847Z,6.38
2023-01-17T20:11:14.743Z,6.75
2023-01-17T20:13:42.461Z,7.15
2023-01-17T20:16:11.703Z,5.65
2023-01-17T20:18:39.079Z,6.53
2023-01-17T20:21:08.061Z,7.18
2023-01-17T20:23:35.841Z,5.85
2023-01-17T20:26:04.760Z,6.05
2023-01-17T20:28:33.202Z,5.57
2023-01-17T20:31:10.226Z,6.30
2023-01-17T20:33:37.424Z,6.47
2023-01-17T20:36:10.645Z,6.38
2023-01-17T20:38:46.255Z,6.88
2023-01-17T20:41:14.458Z,6.25
2023-01-17T20:43:42.342Z,6.25
2023-01-17T20:46:10.099Z,6.60
2023-01-17T20:48:39.383Z,6.60
2023-01-17T20:51:07.609Z,6.38
2023-01-17T20:53:35.743Z,6.78
2023-01-17T20:56:03.242Z,6.78
2023-01-17T20:58:31.045Z,6.07
2023-01-17T21:00:58.484Z,6.53
2023-01-17T21:03:29.543Z,5.70
2023-01-17T21:06:02.897Z,5.97
2023-01-17T21:08:30.992Z,5.63
2023-01-17T21:10:59.162Z,7.00
2023-01-17T21:13:26.776Z,6.38
2023-01-17T21:15:54.244Z,6.22
2023-01-17T21:18:22.343Z,5.95
2023-01-17T21:20:49.903Z,6.75
2023-01-17T21:23:20.382Z,6.70
2023-01-17T21:28:33.694Z,7.47
2023-01-17T21:31:01.216Z,7.13
2023-01-17T21:33:29.629Z,7.32
2023-01-17T21:36:05.636Z,7.63
2023-01-17T21:38:33.084Z,6.20
2023-01-17T21:41:00.302Z,6.60
2023-01-17T21:43:27.831Z,6.68
2023-01-17T21:45:55.044Z,7.55
2023-01-17T21:48:23.303Z,7.38
2023-01-17T21:50:52.791Z,7.03
2023-01-17T21:53:20.036Z,7.50
2023-01-17T21:56:07.182Z,6.85
2023-01-17T21:58:53.836Z,7.03
2023-01-17T22:01:22.703Z,7.30
2023-01-17T22:03:52.308Z,7.57
2023-01-17T22:06:20.333Z,7.60
2023-01-17T22:08:47.945Z,8.13
2023-01-17T22:11:16.184Z,7.43
2023-01-17T22:13:43.887Z,8.00
2023-01-17T22:16:13.828Z,7.30
2023-01-17T22:18:41.605Z,7.72
2023-01-17T22:21:11.984Z,6.65
2023-01-17T22:23:39.665Z,7.45
2023-01-17T22:26:08.394Z,7.35
2023-01-17T22:28:35.780Z,7.68
2023-01-17T22:31:09.142Z,5.72
2023-01-17T22:33:37.219Z,7.50
2023-01-17T22:36:05.256Z,7.72
2023-01-17T22:38:32.757Z,8.25
2023-01-17T22:41:02.891Z,8.00
2023-01-17T22:43:29.951Z,7.78
2023-01-17T22:46:00.477Z,9.35
2023-01-17T22:48:27.647Z,7.78
2023-01-17T22:50:59.230Z,9.27
2023-01-17T22:53:27.727Z,7.55
2023-01-17T22:56:04.715Z,7.78
2023-01-17T22:58:32.538Z,7.45
2023-01-17T23:01:08.678Z,7.50
2023-01-17T23:03:36.081Z,8.57
2023-01-17T23:06:20.765Z,8.68
2023-01-17T23:08:49.681Z,7.82
2023-01-17T23:11:39.415Z,7.57
2023-01-17T23:14:26.540Z,8.63
2023-01-17T23:17:18.317Z,7.70
2023-01-17T23:19:48.133Z,8.10
2023-01-17T23:22:19.532Z,9.05
2023-01-17T23:27:52.764Z,8.63
2023-01-17T23:30:25.831Z,9.13
2023-01-17T23:32:55.275Z,8.32
2023-01-17T23:35:24.353Z,9.43
2023-01-17T23:38:11.562Z,8.30
2023-01-17T23:40:39.055Z,7.95
2023-01-17T23:43:27.072Z,9.45
2023-01-17T23:45:54.888Z,7.60
2023-01-17T23:48:23.841Z,8.73
2023-01-17T23:50:51.065Z,8.05
2023-01-17T23:53:23.225Z,8.93
2023-01-17T23:58:17.813Z,7.53
